sensor_id;sensor_type;location;lat;lon;timestamp;temperature;humidity
25024;DHT22;13033;50.936;5.334;2022-10-16T00:01:14;14.80;99.90
25024;DHT22;13033;50.936;5.334;2022-10-16T00:03:42;14.90;99.90
25024;DHT22;13033;50.936;5.334;2022-10-16T00:06:09;15.00;99.90
25024;DHT22;13033;50.936;5.334;2022-10-16T00:08:35;14.90;99.90
25024;DHT22;13033;50.936;5.334;2022-10-16T00:11:12;14.90;99.90
25024;DHT22;13033;50.936;5.334;2022-10-16T00:13:39;14.80;99.90
25024;DHT22;13033;50.936;5.334;2022-10-16T00:16:06;14.60;99.90
25024;DHT22;13033;50.936;5.334;2022-10-16T00:18:33;14.80;99.90
25024;DHT22;13033;50.936;5.334;2022-10-16T00:21:07;14.80;99.90
25024;DHT22;13033;50.936;5.334;2022-10-16T00:23:33;14.80;99.90
25024;DHT22;13033;50.936;5.334;2022-10-16T00:26:01;14.70;99.90
25024;DHT22;13033;50.936;5.334;2022-10-16T00:28:27;14.70;99.90
25024;DHT22;13033;50.936;5.334;2022-10-16T00:30:53;14.70;99.90
25024;DHT22;13033;50.936;5.334;2022-10-16T00:33:19;14.60;99.90
25024;DHT22;13033;50.936;5.334;2022-10-16T00:35:45;14.70;99.90
25024;DHT22;13033;50.936;5.334;2022-10-16T00:38:11;14.60;99.90
25024;DHT22;13033;50.936;5.334;2022-10-16T00:40:37;14.60;99.90
25024;DHT22;13033;50.936;5.334;2022-10-16T00:43:02;14.50;99.90
25024;DHT22;13033;50.936;5.334;2022-10-16T00:45:30;14.60;99.90
25024;DHT22;13033;50.936;5.334;2022-10-16T00:47:56;14.70;99.90
25024;DHT22;13033;50.936;5.334;2022-10-16T00:52:52;14.70;99.90
25024;DHT22;13033;50.936;5.334;2022-10-16T00:55:19;14.60;99.90
25024;DHT22;13033;50.936;5.334;2022-10-16T00:57:45;14.60;99.90
25024;DHT22;13033;50.936;5.334;2022-10-16T01:00:19;14.70;99.90
25024;DHT22;13033;50.936;5.334;2022-10-16T01:02:55;14.50;99.90
25024;DHT22;13033;50.936;5.334;2022-10-16T01:05:44;14.60;99.90
25024;DHT22;13033;50.936;5.334;2022-10-16T01:08:21;14.50;99.90
25024;DHT22;13033;50.936;5.334;2022-10-16T01:10:57;14.40;99.90
25024;DHT22;13033;50.936;5.334;2022-10-16T01:13:35;14.30;99.90
25024;DHT22;13033;50.936;5.334;2022-10-16T01:16:11;14.40;99.90
25024;DHT22;13033;50.936;5.334;2022-10-16T01:21:10;14.40;99.90
25024;DHT22;13033;50.936;5.334;2022-10-16T01:29:23;14.20;99.90
25024;DHT22;13033;50.936;5.334;2022-10-16T01:31:55;14.30;99.90
25024;DHT22;13033;50.936;5.334;2022-10-16T01:34:35;14.30;99.90
25024;DHT22;13033;50.936;5.334;2022-10-16T01:37:15;14.30;99.90
25024;DHT22;13033;50.936;5.334;2022-10-16T01:39:45;14.30;99.90
25024;DHT22;13033;50.936;5.334;2022-10-16T01:42:19;14.20;99.90
25024;DHT22;13033;50.936;5.334;2022-10-16T01:44:47;14.20;99.90
25024;DHT22;13033;50.936;5.334;2022-10-16T01:47:15;14.20;99.90
25024;DHT22;13033;50.936;5.334;2022-10-16T01:49:41;14.10;99.90
25024;DHT22;13033;50.936;5.334;2022-10-16T01:52:17;14.10;99.90
25024;DHT22;13033;50.936;5.334;2022-10-16T01:54:46;14.10;99.90
25024;DHT22;13033;50.936;5.334;2022-10-16T01:57:13;14.10;99.90
25024;DHT22;13033;50.936;5.334;2022-10-16T01:59:45;14.10;99.90
25024;DHT22;13033;50.936;5.334;2022-10-16T02:02:12;14.20;99.90
25024;DHT22;13033;50.936;5.334;2022-10-16T02:04:45;14.10;99.90
25024;DHT22;13033;50.936;5.334;2022-10-16T02:07:12;14.30;99.90
25024;DHT22;13033;50.936;5.334;2022-10-16T02:09:38;14.20;99.90
25024;DHT22;13033;50.936;5.334;2022-10-16T02:12:24;14.20;99.90
25024;DHT22;13033;50.936;5.334;2022-10-16T02:14:50;14.20;99.90
25024;DHT22;13033;50.936;5.334;2022-10-16T02:17:17;14.10;99.90
25024;DHT22;13033;50.936;5.334;2022-10-16T02:19:44;14.10;99.90
25024;DHT22;13033;50.936;5.334;2022-10-16T02:22:41;14.20;99.90
25024;DHT22;13033;50.936;5.334;2022-10-16T02:25:22;14.10;99.90
25024;DHT22;13033;50.936;5.334;2022-10-16T02:30:44;14.10;99.90
25024;DHT22;13033;50.936;5.334;2022-10-16T02:33:11;14.10;99.90
25024;DHT22;13033;50.936;5.334;2022-10-16T02:35:40;14.10;99.90
25024;DHT22;13033;50.936;5.334;2022-10-16T02:38:07;14.20;99.90
25024;DHT22;13033;50.936;5.334;2022-10-16T02:40:33;14.10;99.90
25024;DHT22;13033;50.936;5.334;2022-10-16T02:42:59;14.10;99.90
25024;DHT22;13033;50.936;5.334;2022-10-16T02:45:25;14.10;99.90
25024;DHT22;13033;50.936;5.334;2022-10-16T02:47:51;14.20;99.90
25024;DHT22;13033;50.936;5.334;2022-10-16T02:50:17;14.10;99.90
25024;DHT22;13033;50.936;5.334;2022-10-16T02:52:43;14.20;99.90
25024;DHT22;13033;50.936;5.334;2022-10-16T02:55:08;14.20;99.90
25024;DHT22;13033;50.936;5.334;2022-10-16T02:57:34;14.30;99.90
25024;DHT22;13033;50.936;5.334;2022-10-16T03:00:05;14.20;99.90
25024;DHT22;13033;50.936;5.334;2022-10-16T03:02:31;14.20;99.90
25024;DHT22;13033;50.936;5.334;2022-10-16T03:04:56;14.20;99.90
25024;DHT22;13033;50.936;5.334;2022-10-16T03:07:22;14.10;99.90
25024;DHT22;13033;50.936;5.334;2022-10-16T03:09:47;14.10;99.90
25024;DHT22;13033;50.936;5.334;2022-10-16T03:12:13;14.10;99.90
25024;DHT22;13033;50.936;5.334;2022-10-16T03:14:39;14.20;99.90
25024;DHT22;13033;50.936;5.334;2022-10-16T03:17:05;14.10;99.90
25024;DHT22;13033;50.936;5.334;2022-10-16T03:19:31;14.20;99.90
25024;DHT22;13033;50.936;5.334;2022-10-16T03:21:57;14.10;99.90
25024;DHT22;13033;50.936;5.334;2022-10-16T03:24:22;14.00;99.90
25024;DHT22;13033;50.936;5.334;2022-10-16T03:26:48;14.00;99.90
25024;DHT22;13033;50.936;5.334;2022-10-16T03:29:13;14.00;99.90
25024;DHT22;13033;50.936;5.334;2022-10-16T03:31:39;14.20;99.90
25024;DHT22;13033;50.936;5.334;2022-10-16T03:34:05;14.10;99.90
25024;DHT22;13033;50.936;5.334;2022-10-16T03:36:31;14.10;99.90
25024;DHT22;13033;50.936;5.334;2022-10-16T03:38:56;14.00;99.90
25024;DHT22;13033;50.936;5.334;2022-10-16T03:41:22;14.10;99.90
25024;DHT22;13033;50.936;5.334;2022-10-16T03:43:48;14.00;99.90
25024;DHT22;13033;50.936;5.334;2022-10-16T03:46:13;14.00;99.90
25024;DHT22;13033;50.936;5.334;2022-10-16T03:48:39;14.00;99.90
25024;DHT22;13033;50.936;5.334;2022-10-16T03:51:05;14.10;99.90
25024;DHT22;13033;50.936;5.334;2022-10-16T03:53:31;14.10;99.90
25024;DHT22;13033;50.936;5.334;2022-10-16T03:55:57;14.10;99.90
25024;DHT22;13033;50.936;5.334;2022-10-16T03:58:23;14.10;99.90
25024;DHT22;13033;50.936;5.334;2022-10-16T04:00:49;14.10;99.90
25024;DHT22;13033;50.936;5.334;2022-10-16T04:03:15;14.00;99.90
25024;DHT22;13033;50.936;5.334;2022-10-16T04:05:41;14.00;99.90
25024;DHT22;13033;50.936;5.334;2022-10-16T04:08:07;14.00;99.90
25024;DHT22;13033;50.936;5.334;2022-10-16T04:10:32;14.00;99.90
25024;DHT22;13033;50.936;5.334;2022-10-16T04:12:58;14.00;99.90
25024;DHT22;13033;50.936;5.334;2022-10-16T04:15:24;13.90;99.90
25024;DHT22;13033;50.936;5.334;2022-10-16T04:17:51;13.90;99.90
25024;DHT22;13033;50.936;5.334;2022-10-16T04:20:17;13.90;99.90
25024;DHT22;13033;50.936;5.334;2022-10-16T04:22:43;14.00;99.90
25024;DHT22;13033;50.936;5.334;2022-10-16T04:25:08;14.00;99.90
25024;DHT22;13033;50.936;5.334;2022-10-16T04:27:34;14.10;99.90
25024;DHT22;13033;50.936;5.334;2022-10-16T04:30:00;14.10;99.90
25024;DHT22;13033;50.936;5.334;2022-10-16T04:32:26;13.90;99.90
25024;DHT22;13033;50.936;5.334;2022-10-16T04:34:52;14.00;99.90
25024;DHT22;13033;50.936;5.334;2022-10-16T04:37:19;14.00;99.90
25024;DHT22;13033;50.936;5.334;2022-10-16T04:39:48;14.10;99.90
25024;DHT22;13033;50.936;5.334;2022-10-16T04:42:13;14.00;99.90
25024;DHT22;13033;50.936;5.334;2022-10-16T04:44:39;13.90;99.90
25024;DHT22;13033;50.936;5.334;2022-10-16T04:47:05;13.80;99.90
25024;DHT22;13033;50.936;5.334;2022-10-16T04:49:31;13.80;99.90
25024;DHT22;13033;50.936;5.334;2022-10-16T04:51:56;13.80;99.90
25024;DHT22;13033;50.936;5.334;2022-10-16T04:54:22;13.70;99.90
25024;DHT22;13033;50.936;5.334;2022-10-16T04:56:48;13.80;99.90
25024;DHT22;13033;50.936;5.334;2022-10-16T04:59:16;13.90;99.90
25024;DHT22;13033;50.936;5.334;2022-10-16T05:01:42;13.90;99.90
25024;DHT22;13033;50.936;5.334;2022-10-16T05:04:08;13.90;99.90
25024;DHT22;13033;50.936;5.334;2022-10-16T05:06:34;13.90;99.90
25024;DHT22;13033;50.936;5.334;2022-10-16T05:09:00;13.80;99.90
25024;DHT22;13033;50.936;5.334;2022-10-16T05:11:26;13.80;99.90
25024;DHT22;13033;50.936;5.334;2022-10-16T05:13:52;13.80;99.90
25024;DHT22;13033;50.936;5.334;2022-10-16T05:16:17;13.80;99.90
25024;DHT22;13033;50.936;5.334;2022-10-16T05:18:43;13.80;99.90
25024;DHT22;13033;50.936;5.334;2022-10-16T05:21:08;13.90;99.90
25024;DHT22;13033;50.936;5.334;2022-10-16T05:23:34;13.90;99.90
25024;DHT22;13033;50.936;5.334;2022-10-16T05:26:00;13.70;99.90
25024;DHT22;13033;50.936;5.334;2022-10-16T05:28:27;13.80;99.90
25024;DHT22;13033;50.936;5.334;2022-10-16T05:30:53;13.70;99.90
25024;DHT22;13033;50.936;5.334;2022-10-16T05:33:24;13.70;99.90
25024;DHT22;13033;50.936;5.334;2022-10-16T05:35:50;13.80;99.90
25024;DHT22;13033;50.936;5.334;2022-10-16T05:38:18;13.80;99.90
25024;DHT22;13033;50.936;5.334;2022-10-16T05:40:51;13.80;99.90
25024;DHT22;13033;50.936;5.334;2022-10-16T05:43:17;13.80;99.90
25024;DHT22;13033;50.936;5.334;2022-10-16T05:45:42;13.80;99.90
25024;DHT22;13033;50.936;5.334;2022-10-16T05:48:08;13.90;99.90
25024;DHT22;13033;50.936;5.334;2022-10-16T05:50:33;13.80;99.90
25024;DHT22;13033;50.936;5.334;2022-10-16T05:52:59;13.80;99.90
25024;DHT22;13033;50.936;5.334;2022-10-16T05:55:25;13.80;99.90
25024;DHT22;13033;50.936;5.334;2022-10-16T05:57:53;13.80;99.90
25024;DHT22;13033;50.936;5.334;2022-10-16T06:00:19;13.80;99.90
25024;DHT22;13033;50.936;5.334;2022-10-16T06:02:44;13.70;99.90
25024;DHT22;13033;50.936;5.334;2022-10-16T06:05:10;13.60;99.90
25024;DHT22;13033;50.936;5.334;2022-10-16T06:07:36;13.60;99.90
25024;DHT22;13033;50.936;5.334;2022-10-16T06:10:02;13.50;99.90
25024;DHT22;13033;50.936;5.334;2022-10-16T06:12:28;13.50;99.90
25024;DHT22;13033;50.936;5.334;2022-10-16T06:14:54;13.50;99.90
25024;DHT22;13033;50.936;5.334;2022-10-16T06:17:19;13.60;99.90
25024;DHT22;13033;50.936;5.334;2022-10-16T06:19:45;13.60;99.90
25024;DHT22;13033;50.936;5.334;2022-10-16T06:22:11;13.70;99.90
25024;DHT22;13033;50.936;5.334;2022-10-16T06:24:36;13.60;99.90
25024;DHT22;13033;50.936;5.334;2022-10-16T06:27:03;13.60;99.90
25024;DHT22;13033;50.936;5.334;2022-10-16T06:29:29;13.50;99.90
25024;DHT22;13033;50.936;5.334;2022-10-16T06:31:55;13.60;99.90
25024;DHT22;13033;50.936;5.334;2022-10-16T06:34:21;13.60;99.90
25024;DHT22;13033;50.936;5.334;2022-10-16T06:36:46;13.60;99.90
25024;DHT22;13033;50.936;5.334;2022-10-16T06:39:12;13.60;99.90
25024;DHT22;13033;50.936;5.334;2022-10-16T06:41:37;13.60;99.90
25024;DHT22;13033;50.936;5.334;2022-10-16T06:44:07;13.60;99.90
25024;DHT22;13033;50.936;5.334;2022-10-16T06:46:33;13.60;99.90
25024;DHT22;13033;50.936;5.334;2022-10-16T06:48:59;13.70;99.90
25024;DHT22;13033;50.936;5.334;2022-10-16T06:51:25;13.70;99.90
25024;DHT22;13033;50.936;5.334;2022-10-16T06:53:53;13.70;99.90
25024;DHT22;13033;50.936;5.334;2022-10-16T06:56:21;13.80;99.90
25024;DHT22;13033;50.936;5.334;2022-10-16T06:58:47;13.90;99.90
25024;DHT22;13033;50.936;5.334;2022-10-16T07:01:15;13.90;99.90
25024;DHT22;13033;50.936;5.334;2022-10-16T07:03:42;13.90;99.90
25024;DHT22;13033;50.936;5.334;2022-10-16T07:06:10;13.90;99.90
25024;DHT22;13033;50.936;5.334;2022-10-16T07:08:38;13.90;99.90
25024;DHT22;13033;50.936;5.334;2022-10-16T07:11:06;14.00;99.90
25024;DHT22;13033;50.936;5.334;2022-10-16T07:13:35;14.10;99.90
25024;DHT22;13033;50.936;5.334;2022-10-16T07:16:12;14.00;99.90
25024;DHT22;13033;50.936;5.334;2022-10-16T07:18:38;14.00;99.90
25024;DHT22;13033;50.936;5.334;2022-10-16T07:21:19;14.10;99.90
25024;DHT22;13033;50.936;5.334;2022-10-16T07:23:52;14.20;99.90
25024;DHT22;13033;50.936;5.334;2022-10-16T07:26:18;14.20;99.90
25024;DHT22;13033;50.936;5.334;2022-10-16T07:28:44;14.20;99.90
25024;DHT22;13033;50.936;5.334;2022-10-16T07:31:11;14.30;99.90
25024;DHT22;13033;50.936;5.334;2022-10-16T07:33:39;14.40;99.90
25024;DHT22;13033;50.936;5.334;2022-10-16T07:36:05;14.40;99.90
25024;DHT22;13033;50.936;5.334;2022-10-16T07:38:31;14.50;99.90
25024;DHT22;13033;50.936;5.334;2022-10-16T07:41:02;14.60;99.90
25024;DHT22;13033;50.936;5.334;2022-10-16T07:43:29;14.60;99.90
25024;DHT22;13033;50.936;5.334;2022-10-16T07:45:55;14.70;99.90
25024;DHT22;13033;50.936;5.334;2022-10-16T07:48:22;14.90;99.90
25024;DHT22;13033;50.936;5.334;2022-10-16T07:50:48;15.00;99.90
25024;DHT22;13033;50.936;5.334;2022-10-16T07:53:14;15.10;99.90
25024;DHT22;13033;50.936;5.334;2022-10-16T07:55:40;15.20;99.90
25024;DHT22;13033;50.936;5.334;2022-10-16T07:58:06;15.40;99.90
25024;DHT22;13033;50.936;5.334;2022-10-16T08:00:33;15.50;99.90
25024;DHT22;13033;50.936;5.334;2022-10-16T08:02:59;15.60;99.90
25024;DHT22;13033;50.936;5.334;2022-10-16T08:05:29;15.70;99.90
25024;DHT22;13033;50.936;5.334;2022-10-16T08:07:55;15.70;99.90
25024;DHT22;13033;50.936;5.334;2022-10-16T08:10:23;15.90;99.90
25024;DHT22;13033;50.936;5.334;2022-10-16T08:12:50;16.10;99.90
25024;DHT22;13033;50.936;5.334;2022-10-16T08:15:16;16.10;99.90
25024;DHT22;13033;50.936;5.334;2022-10-16T08:17:41;16.20;99.90
25024;DHT22;13033;50.936;5.334;2022-10-16T08:20:08;16.40;99.90
25024;DHT22;13033;50.936;5.334;2022-10-16T08:22:33;16.20;99.90
25024;DHT22;13033;50.936;5.334;2022-10-16T08:24:59;16.20;99.90
25024;DHT22;13033;50.936;5.334;2022-10-16T08:27:25;16.20;99.90
25024;DHT22;13033;50.936;5.334;2022-10-16T08:29:50;16.40;99.90
25024;DHT22;13033;50.936;5.334;2022-10-16T08:32:16;16.60;99.90
25024;DHT22;13033;50.936;5.334;2022-10-16T08:34:42;16.60;99.90
25024;DHT22;13033;50.936;5.334;2022-10-16T08:37:07;16.50;99.90
25024;DHT22;13033;50.936;5.334;2022-10-16T08:39:36;16.60;99.90
25024;DHT22;13033;50.936;5.334;2022-10-16T08:48:00;17.00;99.90
25024;DHT22;13033;50.936;5.334;2022-10-16T08:50:30;17.00;99.90
25024;DHT22;13033;50.936;5.334;2022-10-16T08:52:57;17.20;99.90
25024;DHT22;13033;50.936;5.334;2022-10-16T08:55:30;17.10;99.90
25024;DHT22;13033;50.936;5.334;2022-10-16T08:57:58;17.20;99.90
25024;DHT22;13033;50.936;5.334;2022-10-16T09:00:24;17.20;99.90
25024;DHT22;13033;50.936;5.334;2022-10-16T09:03:04;17.00;99.90
25024;DHT22;13033;50.936;5.334;2022-10-16T09:05:43;17.20;99.90
25024;DHT22;13033;50.936;5.334;2022-10-16T09:08:16;17.40;99.90
25024;DHT22;13033;50.936;5.334;2022-10-16T09:16:21;17.40;99.90
25024;DHT22;13033;50.936;5.334;2022-10-16T09:21:47;17.70;99.70
25024;DHT22;13033;50.936;5.334;2022-10-16T09:24:21;17.80;98.50
25024;DHT22;13033;50.936;5.334;2022-10-16T09:26:49;17.80;96.90
25024;DHT22;13033;50.936;5.334;2022-10-16T09:29:17;17.80;96.80
25024;DHT22;13033;50.936;5.334;2022-10-16T09:31:45;17.80;97.20
25024;DHT22;13033;50.936;5.334;2022-10-16T09:34:34;17.80;96.50
25024;DHT22;13033;50.936;5.334;2022-10-16T09:37:04;17.90;96.60
25024;DHT22;13033;50.936;5.334;2022-10-16T09:39:31;18.00;95.80
25024;DHT22;13033;50.936;5.334;2022-10-16T09:42:11;18.30;92.50
25024;DHT22;13033;50.936;5.334;2022-10-16T09:44:39;18.40;91.80
25024;DHT22;13033;50.936;5.334;2022-10-16T09:47:12;18.50;91.90
25024;DHT22;13033;50.936;5.334;2022-10-16T09:49:54;18.60;91.00
25024;DHT22;13033;50.936;5.334;2022-10-16T09:52:21;18.50;92.20
25024;DHT22;13033;50.936;5.334;2022-10-16T09:54:58;18.70;90.30
25024;DHT22;13033;50.936;5.334;2022-10-16T09:57:24;18.70;90.10
25024;DHT22;13033;50.936;5.334;2022-10-16T09:59:55;18.70;88.00
25024;DHT22;13033;50.936;5.334;2022-10-16T10:02:30;18.70;89.00
25024;DHT22;13033;50.936;5.334;2022-10-16T10:04:57;18.70;89.00
25024;DHT22;13033;50.936;5.334;2022-10-16T10:07:26;18.80;87.40
25024;DHT22;13033;50.936;5.334;2022-10-16T10:09:53;19.00;84.60
25024;DHT22;13033;50.936;5.334;2022-10-16T10:12:31;19.00;82.30
25024;DHT22;13033;50.936;5.334;2022-10-16T10:15:13;19.10;82.60
25024;DHT22;13033;50.936;5.334;2022-10-16T10:17:52;19.10;79.10
25024;DHT22;13033;50.936;5.334;2022-10-16T10:22:50;19.30;79.40
25024;DHT22;13033;50.936;5.334;2022-10-16T10:38:50;19.50;74.30
25024;DHT22;13033;50.936;5.334;2022-10-16T10:46:51;19.00;80.70
25024;DHT22;13033;50.936;5.334;2022-10-16T10:50:07;18.80;86.20
25024;DHT22;13033;50.936;5.334;2022-10-16T10:54:55;19.40;76.80
25024;DHT22;13033;50.936;5.334;2022-10-16T11:08:11;19.50;73.70
25024;DHT22;13033;50.936;5.334;2022-10-16T11:13:30;19.90;64.70
25024;DHT22;13033;50.936;5.334;2022-10-16T11:16:00;19.60;65.50
25024;DHT22;13033;50.936;5.334;2022-10-16T11:21:08;19.60;68.30
25024;DHT22;13033;50.936;5.334;2022-10-16T11:26:24;19.50;70.90
25024;DHT22;13033;50.936;5.334;2022-10-16T11:28:55;19.60;65.20
25024;DHT22;13033;50.936;5.334;2022-10-16T11:31:38;19.50;68.70
25024;DHT22;13033;50.936;5.334;2022-10-16T11:37:03;19.60;64.70
25024;DHT22;13033;50.936;5.334;2022-10-16T11:39:31;19.80;61.20
25024;DHT22;13033;50.936;5.334;2022-10-16T11:42:10;20.20;54.70
25024;DHT22;13033;50.936;5.334;2022-10-16T11:44:57;20.10;51.70
25024;DHT22;13033;50.936;5.334;2022-10-16T11:47:43;20.30;53.10
25024;DHT22;13033;50.936;5.334;2022-10-16T11:50:30;20.30;54.50
25024;DHT22;13033;50.936;5.334;2022-10-16T11:55:44;20.00;55.60
25024;DHT22;13033;50.936;5.334;2022-10-16T12:03:34;20.40;50.20
25024;DHT22;13033;50.936;5.334;2022-10-16T12:06:30;20.20;52.70
25024;DHT22;13033;50.936;5.334;2022-10-16T12:08:59;20.40;50.50
25024;DHT22;13033;50.936;5.334;2022-10-16T12:16:58;20.40;46.10
25024;DHT22;13033;50.936;5.334;2022-10-16T12:19:26;20.20;46.80
25024;DHT22;13033;50.936;5.334;2022-10-16T12:21:57;20.30;47.70
25024;DHT22;13033;50.936;5.334;2022-10-16T12:27:05;20.40;51.20
25024;DHT22;13033;50.936;5.334;2022-10-16T12:29:42;19.80;57.20
25024;DHT22;13033;50.936;5.334;2022-10-16T12:32:34;20.10;56.00
25024;DHT22;13033;50.936;5.334;2022-10-16T12:35:01;20.40;49.70
25024;DHT22;13033;50.936;5.334;2022-10-16T12:37:33;21.00;35.90
25024;DHT22;13033;50.936;5.334;2022-10-16T12:39:59;21.70;21.10
25024;DHT22;13033;50.936;5.334;2022-10-16T12:42:37;21.70;17.80
25024;DHT22;13033;50.936;5.334;2022-10-16T12:45:23;21.90;9.00
25024;DHT22;13033;50.936;5.334;2022-10-16T12:47:51;22.20;8.70
25024;DHT22;13033;50.936;5.334;2022-10-16T12:50:27;21.80;19.50
25024;DHT22;13033;50.936;5.334;2022-10-16T12:52:53;21.80;24.10
25024;DHT22;13033;50.936;5.334;2022-10-16T12:55:21;21.90;20.00
25024;DHT22;13033;50.936;5.334;2022-10-16T13:06:17;21.40;27.40
25024;DHT22;13033;50.936;5.334;2022-10-16T13:14:19;21.50;28.10
25024;DHT22;13033;50.936;5.334;2022-10-16T13:17:05;21.30;30.00
25024;DHT22;13033;50.936;5.334;2022-10-16T13:22:49;21.40;30.10
25024;DHT22;13033;50.936;5.334;2022-10-16T13:28:06;20.60;45.10
25024;DHT22;13033;50.936;5.334;2022-10-16T13:30:44;20.40;45.80
25024;DHT22;13033;50.936;5.334;2022-10-16T13:33:14;20.30;47.60
25024;DHT22;13033;50.936;5.334;2022-10-16T13:36:17;20.40;44.40
25024;DHT22;13033;50.936;5.334;2022-10-16T13:38:43;20.10;51.60
25024;DHT22;13033;50.936;5.334;2022-10-16T13:41:17;20.50;48.50
25024;DHT22;13033;50.936;5.334;2022-10-16T13:43:49;20.60;45.00
25024;DHT22;13033;50.936;5.334;2022-10-16T13:46:18;20.80;45.70
25024;DHT22;13033;50.936;5.334;2022-10-16T13:48:45;21.10;43.90
25024;DHT22;13033;50.936;5.334;2022-10-16T13:51:21;20.90;41.60
25024;DHT22;13033;50.936;5.334;2022-10-16T13:53:46;21.00;36.60
25024;DHT22;13033;50.936;5.334;2022-10-16T13:56:14;21.10;38.30
25024;DHT22;13033;50.936;5.334;2022-10-16T13:58:41;21.10;40.20
25024;DHT22;13033;50.936;5.334;2022-10-16T14:01:20;21.10;40.40
25024;DHT22;13033;50.936;5.334;2022-10-16T14:03:47;21.20;39.60
25024;DHT22;13033;50.936;5.334;2022-10-16T14:06:24;21.20;38.60
25024;DHT22;13033;50.936;5.334;2022-10-16T14:09:05;21.40;34.70
25024;DHT22;13033;50.936;5.334;2022-10-16T14:11:32;21.50;32.80
25024;DHT22;13033;50.936;5.334;2022-10-16T14:13:58;21.60;27.30
25024;DHT22;13033;50.936;5.334;2022-10-16T14:16:27;22.00;20.00
25024;DHT22;13033;50.936;5.334;2022-10-16T14:19:04;21.90;16.30
25024;DHT22;13033;50.936;5.334;2022-10-16T14:21:33;21.90;15.30
25024;DHT22;13033;50.936;5.334;2022-10-16T14:23:59;21.90;13.20
25024;DHT22;13033;50.936;5.334;2022-10-16T14:26:42;22.00;10.90
25024;DHT22;13033;50.936;5.334;2022-10-16T14:29:18;22.00;6.70
25024;DHT22;13033;50.936;5.334;2022-10-16T14:31:58;21.70;14.00
25024;DHT22;13033;50.936;5.334;2022-10-16T14:34:25;21.60;18.40
25024;DHT22;13033;50.936;5.334;2022-10-16T14:36:54;21.60;18.40
25024;DHT22;13033;50.936;5.334;2022-10-16T14:39:21;21.50;21.50
25024;DHT22;13033;50.936;5.334;2022-10-16T14:41:50;21.30;23.20
25024;DHT22;13033;50.936;5.334;2022-10-16T14:44:17;20.90;29.80
25024;DHT22;13033;50.936;5.334;2022-10-16T14:46:44;20.70;35.20
25024;DHT22;13033;50.936;5.334;2022-10-16T14:51:37;20.80;29.50
25024;DHT22;13033;50.936;5.334;2022-10-16T14:54:03;20.80;30.20
25024;DHT22;13033;50.936;5.334;2022-10-16T14:56:45;20.90;27.90
25024;DHT22;13033;50.936;5.334;2022-10-16T15:01:57;20.90;29.10
25024;DHT22;13033;50.936;5.334;2022-10-16T15:04:22;21.10;23.60
25024;DHT22;13033;50.936;5.334;2022-10-16T15:06:48;20.90;28.50
25024;DHT22;13033;50.936;5.334;2022-10-16T15:09:14;20.80;34.70
25024;DHT22;13033;50.936;5.334;2022-10-16T15:11:40;20.80;34.00
25024;DHT22;13033;50.936;5.334;2022-10-16T15:14:08;20.80;34.40
25024;DHT22;13033;50.936;5.334;2022-10-16T15:16:34;20.80;36.80
25024;DHT22;13033;50.936;5.334;2022-10-16T15:18:59;20.80;31.50
25024;DHT22;13033;50.936;5.334;2022-10-16T15:21:32;20.90;31.70
25024;DHT22;13033;50.936;5.334;2022-10-16T15:23:58;20.80;32.70
25024;DHT22;13033;50.936;5.334;2022-10-16T15:26:25;20.90;29.70
25024;DHT22;13033;50.936;5.334;2022-10-16T15:28:51;21.00;31.20
25024;DHT22;13033;50.936;5.334;2022-10-16T15:31:17;21.10;31.40
25024;DHT22;13033;50.936;5.334;2022-10-16T15:33:43;21.10;36.60
25024;DHT22;13033;50.936;5.334;2022-10-16T15:36:09;20.90;41.20
25024;DHT22;13033;50.936;5.334;2022-10-16T15:38:35;20.70;51.10
25024;DHT22;13033;50.936;5.334;2022-10-16T15:41:01;20.60;54.40
25024;DHT22;13033;50.936;5.334;2022-10-16T15:43:27;20.70;55.10
25024;DHT22;13033;50.936;5.334;2022-10-16T15:46:05;20.70;56.20
25024;DHT22;13033;50.936;5.334;2022-10-16T15:48:32;20.60;56.30
25024;DHT22;13033;50.936;5.334;2022-10-16T15:50:59;20.40;60.60
25024;DHT22;13033;50.936;5.334;2022-10-16T15:53:25;20.30;62.10
25024;DHT22;13033;50.936;5.334;2022-10-16T15:55:51;20.20;64.00
25024;DHT22;13033;50.936;5.334;2022-10-16T15:58:17;20.00;64.90
25024;DHT22;13033;50.936;5.334;2022-10-16T16:00:42;20.00;64.00
25024;DHT22;13033;50.936;5.334;2022-10-16T16:03:08;19.90;67.60
25024;DHT22;13033;50.936;5.334;2022-10-16T16:05:37;19.80;70.10
25024;DHT22;13033;50.936;5.334;2022-10-16T16:08:03;19.70;70.80
25024;DHT22;13033;50.936;5.334;2022-10-16T16:10:29;19.60;73.90
25024;DHT22;13033;50.936;5.334;2022-10-16T16:12:54;19.60;74.50
25024;DHT22;13033;50.936;5.334;2022-10-16T16:15:21;19.70;54.30
25024;DHT22;13033;50.936;5.334;2022-10-16T16:17:47;19.60;55.60
25024;DHT22;13033;50.936;5.334;2022-10-16T16:20:13;19.60;57.70
25024;DHT22;13033;50.936;5.334;2022-10-16T16:22:39;19.50;50.80
25024;DHT22;13033;50.936;5.334;2022-10-16T16:25:05;19.40;53.70
25024;DHT22;13033;50.936;5.334;2022-10-16T16:27:31;19.40;54.10
25024;DHT22;13033;50.936;5.334;2022-10-16T16:30:00;19.50;51.90
25024;DHT22;13033;50.936;5.334;2022-10-16T16:32:25;19.50;52.80
25024;DHT22;13033;50.936;5.334;2022-10-16T16:34:51;19.50;51.60
25024;DHT22;13033;50.936;5.334;2022-10-16T16:37:16;19.30;54.80
25024;DHT22;13033;50.936;5.334;2022-10-16T16:39:42;19.20;59.90
25024;DHT22;13033;50.936;5.334;2022-10-16T16:42:08;19.10;64.00
25024;DHT22;13033;50.936;5.334;2022-10-16T16:44:35;19.10;65.00
25024;DHT22;13033;50.936;5.334;2022-10-16T16:47:02;19.20;66.00
25024;DHT22;13033;50.936;5.334;2022-10-16T16:49:28;19.10;69.20
25024;DHT22;13033;50.936;5.334;2022-10-16T16:51:53;19.00;72.90
25024;DHT22;13033;50.936;5.334;2022-10-16T16:54:19;19.00;75.20
25024;DHT22;13033;50.936;5.334;2022-10-16T16:56:45;18.90;75.70
25024;DHT22;13033;50.936;5.334;2022-10-16T16:59:16;18.90;79.20
25024;DHT22;13033;50.936;5.334;2022-10-16T17:01:43;18.70;79.40
25024;DHT22;13033;50.936;5.334;2022-10-16T17:04:09;18.70;81.20
25024;DHT22;13033;50.936;5.334;2022-10-16T17:06:36;18.60;83.10
25024;DHT22;13033;50.936;5.334;2022-10-16T17:09:03;18.70;83.00
25024;DHT22;13033;50.936;5.334;2022-10-16T17:11:29;18.80;80.20
25024;DHT22;13033;50.936;5.334;2022-10-16T17:13:57;18.90;80.60
25024;DHT22;13033;50.936;5.334;2022-10-16T17:16:25;18.90;80.20
25024;DHT22;13033;50.936;5.334;2022-10-16T17:18:52;18.70;84.00
25024;DHT22;13033;50.936;5.334;2022-10-16T17:21:18;18.60;86.50
25024;DHT22;13033;50.936;5.334;2022-10-16T17:23:44;18.60;88.00
25024;DHT22;13033;50.936;5.334;2022-10-16T17:26:13;18.50;90.10
25024;DHT22;13033;50.936;5.334;2022-10-16T17:28:39;18.50;90.50
25024;DHT22;13033;50.936;5.334;2022-10-16T17:33:34;18.50;90.70
25024;DHT22;13033;50.936;5.334;2022-10-16T17:35:59;18.50;91.30
25024;DHT22;13033;50.936;5.334;2022-10-16T17:38:25;18.50;90.90